LKVO METAR and TAF | Updated Today

LKVO METAR

Vodochody Airport

Observation time: 5:39 hr. ago

LKVO 061400Z 11003KT 060V150 9999 FEW020 M01/M06 Q1036

Need help? Read our tutorial on how to read METARs or read the parsed version below.

Vodochody Airport (LKVO) METAR

  • Weather conditions on Mon, 06 Feb 2023 14:00:00 +0000 (5:39 hr. ago):
  • Present conditions: Dry
  • Clouds: A few at 610 meters
  • Visibility: Greater than 10 km
  • Wind: 110 degrees at 3 knots
  • Temperature: -1 celsius
  • Dew point: -6 celsius
  • Pressure: 1036 millibars
  • Remarks: None


Useful to know...